Impacts METAR Board
IDs:

KDCA - Washington/National, VA, US

Updated at: 2000 UTC 23 Sep 2018
Potential Impact None Slight Moderate High
Time 23/08Z 23/09Z 23/10Z 23/11Z 23/12Z 23/13Z 23/14Z 23/15Z 23/16Z 23/17Z 23/18Z 23/19Z 23/20Z
Temp62 62 61 61 62 63 62 63 64 65 65 64 64
Dewpt56 56 57 57 57 59 59 60 61 62 61 61 61
Altim30.18 30.19 30.19 30.18 30.18 30.21 30.22 30.22 30.22 30.21 30.21 30.20 30.19
VIS10 8 6 10 7 7 4 10 4 4 6 3 8
CIG27 22 22 23 110 23 47 60 55 7 11 8 8
CoverOVCOVCOVCOVCOVCOVCOVCOVCOVCOVCOVCOVCOVC
FltCatMVFRMVFRMVFRMVFRVFRMVFRMVFRVFRMVFRIFRMVFRIFRIFR
WX-RARARA BR---RA-RARA BR-RA-RA BR-RA BR-RA BR-RA BR-RA
WDir30202030301030303040403030
WSpd6 9 7 8 7 6 10 7 7 7 10 8 10
WGst-- -- -- -- -- -- -- -- -- -- -- -- --
Raw hourly METARs
KDCA 230752Z 03006KT 10SM -RA OVC027 17/13 A3018 RMK AO2 SLP220 P0004 T01670133 $
KDCA 230852Z 02009KT 8SM RA BKN022 BKN030 OVC039 17/13 A3019 RMK AO2 SLP221 P0003 60008 T01670133 55006 $
KDCA 230952Z 02007KT 6SM RA BR OVC022 16/14 A3019 RMK AO2 SLP223 P0006 T01610139 $
KDCA 231052Z 03008KT 10SM BKN023 OVC070 16/14 A3018 RMK AO2 RAE40 SLP218 P0004 T01610139 $
KDCA 231159Z 03007KT 7SM -RA SCT060 SCT080 OVC110 17/14 A3018 RMK AO2 P0001 T01670139 $
KDCA 231252Z 01006KT 7SM -RA SCT013 BKN023 OVC033 17/15 A3021 RMK AO2 SLP229 P0003 T01720150 $
KDCA 231359Z 03010KT 4SM RA BR SCT007 BKN047 OVC070 17/15 A3022 RMK AO2 P0001 T01670150 $
KDCA 231452Z 03007KT 10SM -RA FEW007 SCT036 OVC060 17/16 A3022 RMK AO2 SLP233 P0007 60022 T01720156 51015 $
KDCA 231552Z 03007KT 4SM -RA BR FEW006 OVC055 18/16 A3022 RMK AO2 SLP232 P0001 T01780161 $
KDCA 231652Z 04007KT 4SM -RA BR BKN007 BKN011 OVC060 18/17 A3021 RMK AO2 SLP229 P0006 T01830167 $
KDCA 231752Z 04010KT 6SM -RA BR OVC011 18/16 A3021 RMK AO2 CIG 006V015 SLP228 P0001 60030 T01830161 10183 20167 56005 $
KDCA 231859Z 03008KT 3SM -RA BR OVC008 18/16 A3020 RMK AO2 CIG 005V013 P0000 T01780161 $
KDCA 231952Z 03010KT 8SM -RA OVC008 18/16 A3019 RMK AO2 RAE16B36 CIG 006V012 SLP223 P0000 T01780161 $



Page loaded:  20:26 UTC  |   01:26 PM Pacific  |   02:26 PM Mountain  |   03:26 PM Central  |   04:26 PM Eastern

 

ADVISORIES

FORECASTS

FORECASTS

OBSERVATIONS

USER TOOLS

ABOUT US